Brown Springs, Arkansas
Current Conditions -  °F | °C
As of 5:53 PM on Monday 20 Oct 2014 (Local Time) from KHOT Reporting Station
Overcast Overcast  
Wind Chill: 68°   Ceiling: 4400
Heat Index: 68°   Visibility: 10mi
Dew Point: 57°   Wind: 0mph
Humidity: 68%   Direction: NA
Pressure: 30.04"   Gusts: NA
Location:  34.3189°N, 92.8629°W
Report Text: KHOT 202253Z AUTO 00000KT 10SM OVC044 20/14 A3004 RMK AO2 SLP170 T02000139
Loading
Personal Weather Stations






























Interactive Weather Map
Tropical Storm Tracking
New forecast layout! Learn more

10-Day Weather Forecast

Advertisements
Track Severe Weather on mobile